sensor_id;sensor_type;location;lat;lon;timestamp;P1;durP1;ratioP1;P2;durP2;ratioP2
948;SDS011;461;51.436;7.312;2023-07-13T00:03:33;6.43;;;2.50;;
948;SDS011;461;51.436;7.312;2023-07-13T00:06:00;6.13;;;2.33;;
948;SDS011;461;51.436;7.312;2023-07-13T00:10:55;6.20;;;1.97;;
948;SDS011;461;51.436;7.312;2023-07-13T00:13:21;4.80;;;3.13;;
948;SDS011;461;51.436;7.312;2023-07-13T00:15:47;4.80;;;1.90;;
948;SDS011;461;51.436;7.312;2023-07-13T00:18:13;4.47;;;2.17;;
948;SDS011;461;51.436;7.312;2023-07-13T00:20:39;7.20;;;2.77;;
948;SDS011;461;51.436;7.312;2023-07-13T00:23:06;4.93;;;2.13;;
948;SDS011;461;51.436;7.312;2023-07-13T00:25:32;2.90;;;2.10;;
948;SDS011;461;51.436;7.312;2023-07-13T00:28:00;5.53;;;3.10;;
948;SDS011;461;51.436;7.312;2023-07-13T00:30:26;6.23;;;2.10;;
948;SDS011;461;51.436;7.312;2023-07-13T00:32:52;7.20;;;2.40;;
948;SDS011;461;51.436;7.312;2023-07-13T00:35:18;6.10;;;2.07;;
948;SDS011;461;51.436;7.312;2023-07-13T00:37:44;4.40;;;2.00;;
948;SDS011;461;51.436;7.312;2023-07-13T00:40:11;4.10;;;1.83;;
948;SDS011;461;51.436;7.312;2023-07-13T00:42:37;4.97;;;1.97;;
948;SDS011;461;51.436;7.312;2023-07-13T00:47:39;5.90;;;2.50;;
948;SDS011;461;51.436;7.312;2023-07-13T00:50:06;5.30;;;2.00;;
948;SDS011;461;51.436;7.312;2023-07-13T00:52:33;3.30;;;1.80;;
948;SDS011;461;51.436;7.312;2023-07-13T00:55:01;2.10;;;1.70;;
948;SDS011;461;51.436;7.312;2023-07-13T00:57:28;5.60;;;2.00;;
948;SDS011;461;51.436;7.312;2023-07-13T00:59:55;6.20;;;2.17;;
948;SDS011;461;51.436;7.312;2023-07-13T01:02:22;3.23;;;2.07;;
948;SDS011;461;51.436;7.312;2023-07-13T01:04:48;6.17;;;2.20;;
948;SDS011;461;51.436;7.312;2023-07-13T01:07:14;3.70;;;1.73;;
948;SDS011;461;51.436;7.312;2023-07-13T01:09:40;5.43;;;1.60;;
948;SDS011;461;51.436;7.312;2023-07-13T01:12:07;3.83;;;1.93;;
948;SDS011;461;51.436;7.312;2023-07-13T01:14:33;5.47;;;1.90;;
948;SDS011;461;51.436;7.312;2023-07-13T01:16:59;4.73;;;1.83;;
948;SDS011;461;51.436;7.312;2023-07-13T01:19:45;4.77;;;2.30;;
948;SDS011;461;51.436;7.312;2023-07-13T01:22:12;3.63;;;2.00;;
948;SDS011;461;51.436;7.312;2023-07-13T01:24:42;4.80;;;1.97;;
948;SDS011;461;51.436;7.312;2023-07-13T01:27:10;4.00;;;1.80;;
948;SDS011;461;51.436;7.312;2023-07-13T01:29:37;7.83;;;1.93;;
948;SDS011;461;51.436;7.312;2023-07-13T01:32:07;6.30;;;1.83;;
948;SDS011;461;51.436;7.312;2023-07-13T01:34:33;7.07;;;2.40;;
948;SDS011;461;51.436;7.312;2023-07-13T01:36:59;2.80;;;1.80;;
948;SDS011;461;51.436;7.312;2023-07-13T01:39:25;5.83;;;2.53;;
948;SDS011;461;51.436;7.312;2023-07-13T01:41:51;2.90;;;1.80;;
948;SDS011;461;51.436;7.312;2023-07-13T01:44:17;3.33;;;1.93;;
948;SDS011;461;51.436;7.312;2023-07-13T01:46:43;3.13;;;1.97;;
948;SDS011;461;51.436;7.312;2023-07-13T01:49:09;4.70;;;1.90;;
948;SDS011;461;51.436;7.312;2023-07-13T01:51:35;4.30;;;1.80;;
948;SDS011;461;51.436;7.312;2023-07-13T01:54:01;4.70;;;1.93;;
948;SDS011;461;51.436;7.312;2023-07-13T01:56:28;6.23;;;1.77;;
948;SDS011;461;51.436;7.312;2023-07-13T01:58:54;4.77;;;1.70;;
948;SDS011;461;51.436;7.312;2023-07-13T02:01:20;7.57;;;2.40;;
948;SDS011;461;51.436;7.312;2023-07-13T02:03:46;5.70;;;1.67;;
948;SDS011;461;51.436;7.312;2023-07-13T02:06:12;8.30;;;1.93;;
948;SDS011;461;51.436;7.312;2023-07-13T02:08:38;4.70;;;1.67;;
948;SDS011;461;51.436;7.312;2023-07-13T02:11:04;4.00;;;1.97;;
948;SDS011;461;51.436;7.312;2023-07-13T02:13:30;3.73;;;1.70;;
948;SDS011;461;51.436;7.312;2023-07-13T02:15:56;4.40;;;1.77;;
948;SDS011;461;51.436;7.312;2023-07-13T02:18:22;3.10;;;1.97;;
948;SDS011;461;51.436;7.312;2023-07-13T02:20:48;4.93;;;1.87;;
948;SDS011;461;51.436;7.312;2023-07-13T02:23:15;4.93;;;1.80;;
948;SDS011;461;51.436;7.312;2023-07-13T02:25:41;5.60;;;2.70;;
948;SDS011;461;51.436;7.312;2023-07-13T02:28:07;9.40;;;2.57;;
948;SDS011;461;51.436;7.312;2023-07-13T02:30:33;3.40;;;1.47;;
948;SDS011;461;51.436;7.312;2023-07-13T02:33:00;3.37;;;1.80;;
948;SDS011;461;51.436;7.312;2023-07-13T02:35:26;5.60;;;1.80;;
948;SDS011;461;51.436;7.312;2023-07-13T02:37:52;4.70;;;1.93;;
948;SDS011;461;51.436;7.312;2023-07-13T02:40:18;4.43;;;1.40;;
948;SDS011;461;51.436;7.312;2023-07-13T02:54:58;5.07;;;1.97;;
948;SDS011;461;51.436;7.312;2023-07-13T02:57:24;5.23;;;1.67;;
948;SDS011;461;51.436;7.312;2023-07-13T02:59:50;1.87;;;1.47;;
948;SDS011;461;51.436;7.312;2023-07-13T03:02:16;3.70;;;1.70;;
948;SDS011;461;51.436;7.312;2023-07-13T03:04:42;5.60;;;2.30;;
948;SDS011;461;51.436;7.312;2023-07-13T03:07:08;3.43;;;1.80;;
948;SDS011;461;51.436;7.312;2023-07-13T03:09:35;5.07;;;2.40;;
948;SDS011;461;51.436;7.312;2023-07-13T03:12:01;9.20;;;2.13;;
948;SDS011;461;51.436;7.312;2023-07-13T03:14:27;3.63;;;1.70;;
948;SDS011;461;51.436;7.312;2023-07-13T03:16:53;2.30;;;1.80;;
948;SDS011;461;51.436;7.312;2023-07-13T03:19:19;2.83;;;1.57;;
948;SDS011;461;51.436;7.312;2023-07-13T03:21:46;3.63;;;2.00;;
948;SDS011;461;51.436;7.312;2023-07-13T03:24:12;6.47;;;1.90;;
948;SDS011;461;51.436;7.312;2023-07-13T03:26:38;2.50;;;1.90;;
948;SDS011;461;51.436;7.312;2023-07-13T03:29:04;6.67;;;2.10;;
948;SDS011;461;51.436;7.312;2023-07-13T03:31:32;6.43;;;2.30;;
948;SDS011;461;51.436;7.312;2023-07-13T03:33:59;5.20;;;1.93;;
948;SDS011;461;51.436;7.312;2023-07-13T03:36:26;4.30;;;1.90;;
948;SDS011;461;51.436;7.312;2023-07-13T03:38:54;5.10;;;2.20;;
948;SDS011;461;51.436;7.312;2023-07-13T03:41:20;2.33;;;1.80;;
948;SDS011;461;51.436;7.312;2023-07-13T03:43:46;6.47;;;2.13;;
948;SDS011;461;51.436;7.312;2023-07-13T03:46:13;4.07;;;2.03;;
948;SDS011;461;51.436;7.312;2023-07-13T03:48:40;7.40;;;1.93;;
948;SDS011;461;51.436;7.312;2023-07-13T03:51:08;3.53;;;1.93;;
948;SDS011;461;51.436;7.312;2023-07-13T03:53:37;4.20;;;1.50;;
948;SDS011;461;51.436;7.312;2023-07-13T03:56:03;5.73;;;2.30;;
948;SDS011;461;51.436;7.312;2023-07-13T03:58:34;3.07;;;2.10;;
948;SDS011;461;51.436;7.312;2023-07-13T04:01:01;3.30;;;1.90;;
948;SDS011;461;51.436;7.312;2023-07-13T04:03:27;9.77;;;2.00;;
948;SDS011;461;51.436;7.312;2023-07-13T04:05:57;4.03;;;1.77;;
948;SDS011;461;51.436;7.312;2023-07-13T04:08:25;4.53;;;1.87;;
948;SDS011;461;51.436;7.312;2023-07-13T04:10:51;2.93;;;1.77;;
948;SDS011;461;51.436;7.312;2023-07-13T04:13:17;3.03;;;1.73;;
948;SDS011;461;51.436;7.312;2023-07-13T04:15:43;4.27;;;2.07;;
948;SDS011;461;51.436;7.312;2023-07-13T04:18:09;4.60;;;2.93;;
948;SDS011;461;51.436;7.312;2023-07-13T04:20:35;3.90;;;1.73;;
948;SDS011;461;51.436;7.312;2023-07-13T04:23:01;5.03;;;1.70;;
948;SDS011;461;51.436;7.312;2023-07-13T04:25:27;3.77;;;2.03;;
948;SDS011;461;51.436;7.312;2023-07-13T04:27:53;5.93;;;2.17;;
948;SDS011;461;51.436;7.312;2023-07-13T04:30:20;3.10;;;2.20;;
948;SDS011;461;51.436;7.312;2023-07-13T04:32:46;3.57;;;1.83;;
948;SDS011;461;51.436;7.312;2023-07-13T04:35:12;4.27;;;1.97;;
948;SDS011;461;51.436;7.312;2023-07-13T04:37:39;6.80;;;2.20;;
948;SDS011;461;51.436;7.312;2023-07-13T04:40:05;2.30;;;1.70;;
948;SDS011;461;51.436;7.312;2023-07-13T04:42:35;6.77;;;2.40;;
948;SDS011;461;51.436;7.312;2023-07-13T04:45:01;1.90;;;1.37;;
948;SDS011;461;51.436;7.312;2023-07-13T04:47:29;2.77;;;1.97;;
948;SDS011;461;51.436;7.312;2023-07-13T04:49:55;5.03;;;2.33;;
948;SDS011;461;51.436;7.312;2023-07-13T04:52:22;5.53;;;2.40;;
948;SDS011;461;51.436;7.312;2023-07-13T04:54:48;4.63;;;2.00;;
948;SDS011;461;51.436;7.312;2023-07-13T04:57:15;5.73;;;2.17;;
948;SDS011;461;51.436;7.312;2023-07-13T04:59:41;6.80;;;2.47;;
948;SDS011;461;51.436;7.312;2023-07-13T05:02:07;5.07;;;2.30;;
948;SDS011;461;51.436;7.312;2023-07-13T05:04:33;3.03;;;1.60;;
948;SDS011;461;51.436;7.312;2023-07-13T05:06:59;3.30;;;2.03;;
948;SDS011;461;51.436;7.312;2023-07-13T05:09:25;5.90;;;1.80;;
948;SDS011;461;51.436;7.312;2023-07-13T05:11:52;4.70;;;2.00;;
948;SDS011;461;51.436;7.312;2023-07-13T05:14:18;4.20;;;2.17;;
948;SDS011;461;51.436;7.312;2023-07-13T05:16:44;4.30;;;2.43;;
948;SDS011;461;51.436;7.312;2023-07-13T05:19:10;2.77;;;2.07;;
948;SDS011;461;51.436;7.312;2023-07-13T05:21:36;2.83;;;1.50;;
948;SDS011;461;51.436;7.312;2023-07-13T05:24:02;3.03;;;1.73;;
948;SDS011;461;51.436;7.312;2023-07-13T05:26:28;3.90;;;1.80;;
948;SDS011;461;51.436;7.312;2023-07-13T05:28:54;6.40;;;2.13;;
948;SDS011;461;51.436;7.312;2023-07-13T05:31:20;4.63;;;2.10;;
948;SDS011;461;51.436;7.312;2023-07-13T05:33:46;5.37;;;2.60;;
948;SDS011;461;51.436;7.312;2023-07-13T05:36:12;4.43;;;1.93;;
948;SDS011;461;51.436;7.312;2023-07-13T05:44:45;7.67;;;2.87;;
948;SDS011;461;51.436;7.312;2023-07-13T05:47:11;7.40;;;2.60;;
948;SDS011;461;51.436;7.312;2023-07-13T05:49:39;5.07;;;2.43;;
948;SDS011;461;51.436;7.312;2023-07-13T05:52:06;5.97;;;2.40;;
948;SDS011;461;51.436;7.312;2023-07-13T05:54:32;7.90;;;2.30;;
948;SDS011;461;51.436;7.312;2023-07-13T05:56:58;5.70;;;1.97;;
948;SDS011;461;51.436;7.312;2023-07-13T05:59:24;6.33;;;2.37;;
948;SDS011;461;51.436;7.312;2023-07-13T06:01:50;5.00;;;2.90;;
948;SDS011;461;51.436;7.312;2023-07-13T06:04:17;4.93;;;2.70;;
948;SDS011;461;51.436;7.312;2023-07-13T06:06:44;8.83;;;2.43;;
948;SDS011;461;51.436;7.312;2023-07-13T06:09:10;6.70;;;2.70;;
948;SDS011;461;51.436;7.312;2023-07-13T06:11:36;5.80;;;2.60;;
948;SDS011;461;51.436;7.312;2023-07-13T06:14:02;6.20;;;2.30;;
948;SDS011;461;51.436;7.312;2023-07-13T06:16:29;7.63;;;3.00;;
948;SDS011;461;51.436;7.312;2023-07-13T06:18:55;10.93;;;2.87;;
948;SDS011;461;51.436;7.312;2023-07-13T06:21:22;9.30;;;2.97;;
948;SDS011;461;51.436;7.312;2023-07-13T06:23:49;7.90;;;3.03;;
948;SDS011;461;51.436;7.312;2023-07-13T06:26:15;5.90;;;3.00;;
948;SDS011;461;51.436;7.312;2023-07-13T06:28:42;7.97;;;3.00;;
948;SDS011;461;51.436;7.312;2023-07-13T06:31:09;8.47;;;3.23;;
948;SDS011;461;51.436;7.312;2023-07-13T06:33:35;8.70;;;3.33;;
948;SDS011;461;51.436;7.312;2023-07-13T06:36:03;6.23;;;3.10;;
948;SDS011;461;51.436;7.312;2023-07-13T06:38:29;5.93;;;2.53;;
948;SDS011;461;51.436;7.312;2023-07-13T06:40:55;8.87;;;3.00;;
948;SDS011;461;51.436;7.312;2023-07-13T06:43:21;9.67;;;2.90;;
948;SDS011;461;51.436;7.312;2023-07-13T06:45:49;7.10;;;3.00;;
948;SDS011;461;51.436;7.312;2023-07-13T06:48:16;10.07;;;3.10;;
948;SDS011;461;51.436;7.312;2023-07-13T06:50:43;7.70;;;3.30;;
948;SDS011;461;51.436;7.312;2023-07-13T06:53:12;6.27;;;2.67;;
948;SDS011;461;51.436;7.312;2023-07-13T07:01:46;5.50;;;2.50;;
948;SDS011;461;51.436;7.312;2023-07-13T07:04:12;9.80;;;2.70;;
948;SDS011;461;51.436;7.312;2023-07-13T07:24:59;6.17;;;2.87;;
948;SDS011;461;51.436;7.312;2023-07-13T07:27:25;5.67;;;2.77;;
948;SDS011;461;51.436;7.312;2023-07-13T07:29:51;8.30;;;2.90;;
948;SDS011;461;51.436;7.312;2023-07-13T07:32:18;6.33;;;3.47;;
948;SDS011;461;51.436;7.312;2023-07-13T07:34:44;4.50;;;1.90;;
948;SDS011;461;51.436;7.312;2023-07-13T07:37:11;8.67;;;2.20;;
948;SDS011;461;51.436;7.312;2023-07-13T07:39:37;4.87;;;2.40;;
948;SDS011;461;51.436;7.312;2023-07-13T07:42:04;5.13;;;2.20;;
948;SDS011;461;51.436;7.312;2023-07-13T07:44:30;3.63;;;1.93;;
948;SDS011;461;51.436;7.312;2023-07-13T07:59:11;5.20;;;2.37;;
948;SDS011;461;51.436;7.312;2023-07-13T08:01:37;8.53;;;2.30;;
948;SDS011;461;51.436;7.312;2023-07-13T08:10:11;5.03;;;2.30;;
948;SDS011;461;51.436;7.312;2023-07-13T08:12:37;5.00;;;3.00;;
948;SDS011;461;51.436;7.312;2023-07-13T08:15:04;5.73;;;2.40;;
948;SDS011;461;51.436;7.312;2023-07-13T08:17:30;5.47;;;2.53;;
948;SDS011;461;51.436;7.312;2023-07-13T08:32:11;4.57;;;2.70;;
948;SDS011;461;51.436;7.312;2023-07-13T08:34:38;5.83;;;2.90;;
948;SDS011;461;51.436;7.312;2023-07-13T08:37:05;5.93;;;2.30;;
948;SDS011;461;51.436;7.312;2023-07-13T08:42:54;5.60;;;2.50;;
948;SDS011;461;51.436;7.312;2023-07-13T08:45:57;5.97;;;2.50;;
948;SDS011;461;51.436;7.312;2023-07-13T08:48:28;6.00;;;2.23;;
948;SDS011;461;51.436;7.312;2023-07-13T08:50:58;3.73;;;2.40;;
948;SDS011;461;51.436;7.312;2023-07-13T08:53:24;4.00;;;2.37;;
948;SDS011;461;51.436;7.312;2023-07-13T08:55:55;4.03;;;2.60;;
948;SDS011;461;51.436;7.312;2023-07-13T08:58:23;7.93;;;2.63;;
948;SDS011;461;51.436;7.312;2023-07-13T09:01:10;5.67;;;2.50;;
948;SDS011;461;51.436;7.312;2023-07-13T09:03:46;7.80;;;2.77;;
948;SDS011;461;51.436;7.312;2023-07-13T09:06:14;4.70;;;2.30;;
948;SDS011;461;51.436;7.312;2023-07-13T09:16:42;7.20;;;2.53;;
948;SDS011;461;51.436;7.312;2023-07-13T09:19:20;4.67;;;2.60;;
948;SDS011;461;51.436;7.312;2023-07-13T09:21:48;4.33;;;2.37;;
948;SDS011;461;51.436;7.312;2023-07-13T09:24:31;3.80;;;2.00;;
948;SDS011;461;51.436;7.312;2023-07-13T09:39:26;4.90;;;3.10;;
948;SDS011;461;51.436;7.312;2023-07-13T09:44:39;5.73;;;2.27;;
948;SDS011;461;51.436;7.312;2023-07-13T09:47:16;5.97;;;2.33;;
948;SDS011;461;51.436;7.312;2023-07-13T09:49:43;3.80;;;2.20;;
948;SDS011;461;51.436;7.312;2023-07-13T09:52:14;5.93;;;2.10;;
948;SDS011;461;51.436;7.312;2023-07-13T09:54:44;2.73;;;1.60;;
948;SDS011;461;51.436;7.312;2023-07-13T09:57:14;7.20;;;2.53;;
948;SDS011;461;51.436;7.312;2023-07-13T09:59:43;5.40;;;2.77;;
948;SDS011;461;51.436;7.312;2023-07-13T10:02:25;4.20;;;2.37;;
948;SDS011;461;51.436;7.312;2023-07-13T10:10:59;6.53;;;2.73;;
948;SDS011;461;51.436;7.312;2023-07-13T10:15:51;3.87;;;2.37;;
948;SDS011;461;51.436;7.312;2023-07-13T10:18:17;4.00;;;2.57;;
948;SDS011;461;51.436;7.312;2023-07-13T10:20:45;7.50;;;3.03;;
948;SDS011;461;51.436;7.312;2023-07-13T10:23:13;4.83;;;2.57;;
948;SDS011;461;51.436;7.312;2023-07-13T10:25:42;5.93;;;2.43;;
948;SDS011;461;51.436;7.312;2023-07-13T10:30:38;4.17;;;2.50;;
948;SDS011;461;51.436;7.312;2023-07-13T10:33:08;4.87;;;2.97;;
948;SDS011;461;51.436;7.312;2023-07-13T10:35:36;4.70;;;2.03;;
948;SDS011;461;51.436;7.312;2023-07-13T10:38:05;3.33;;;2.23;;
948;SDS011;461;51.436;7.312;2023-07-13T10:40:56;4.90;;;1.90;;
948;SDS011;461;51.436;7.312;2023-07-13T10:43:21;7.43;;;2.80;;
948;SDS011;461;51.436;7.312;2023-07-13T10:45:49;5.37;;;2.40;;
948;SDS011;461;51.436;7.312;2023-07-13T10:48:16;7.77;;;2.80;;
948;SDS011;461;51.436;7.312;2023-07-13T10:50:44;6.13;;;2.43;;
948;SDS011;461;51.436;7.312;2023-07-13T10:53:21;3.37;;;2.10;;
948;SDS011;461;51.436;7.312;2023-07-13T11:00:47;11.23;;;2.60;;
948;SDS011;461;51.436;7.312;2023-07-13T11:03:15;4.33;;;3.00;;
948;SDS011;461;51.436;7.312;2023-07-13T11:05:42;4.20;;;2.13;;
948;SDS011;461;51.436;7.312;2023-07-13T11:10:55;7.73;;;2.47;;
948;SDS011;461;51.436;7.312;2023-07-13T11:16:26;6.87;;;3.27;;
948;SDS011;461;51.436;7.312;2023-07-13T11:21:27;5.10;;;3.30;;
948;SDS011;461;51.436;7.312;2023-07-13T11:24:03;3.10;;;2.27;;
948;SDS011;461;51.436;7.312;2023-07-13T11:32:22;5.20;;;2.20;;
948;SDS011;461;51.436;7.312;2023-07-13T11:34:49;4.83;;;2.67;;
948;SDS011;461;51.436;7.312;2023-07-13T11:37:15;5.60;;;1.97;;
948;SDS011;461;51.436;7.312;2023-07-13T11:39:43;6.17;;;2.90;;
948;SDS011;461;51.436;7.312;2023-07-13T11:42:11;3.93;;;2.20;;
948;SDS011;461;51.436;7.312;2023-07-13T11:56:54;4.50;;;2.10;;
948;SDS011;461;51.436;7.312;2023-07-13T11:59:21;4.30;;;2.30;;
948;SDS011;461;51.436;7.312;2023-07-13T12:01:49;4.60;;;2.43;;
948;SDS011;461;51.436;7.312;2023-07-13T12:04:31;4.63;;;2.33;;
948;SDS011;461;51.436;7.312;2023-07-13T12:07:03;6.47;;;2.77;;
948;SDS011;461;51.436;7.312;2023-07-13T12:09:29;3.93;;;2.50;;
948;SDS011;461;51.436;7.312;2023-07-13T12:27:21;4.30;;;2.00;;
948;SDS011;461;51.436;7.312;2023-07-13T12:29:51;2.10;;;1.70;;
948;SDS011;461;51.436;7.312;2023-07-13T12:32:19;2.93;;;1.90;;
948;SDS011;461;51.436;7.312;2023-07-13T12:34:52;6.50;;;2.30;;
948;SDS011;461;51.436;7.312;2023-07-13T12:37:18;2.60;;;1.70;;
948;SDS011;461;51.436;7.312;2023-07-13T12:39:46;3.43;;;1.93;;
948;SDS011;461;51.436;7.312;2023-07-13T12:59:51;4.93;;;2.20;;
948;SDS011;461;51.436;7.312;2023-07-13T13:02:33;6.57;;;2.50;;
948;SDS011;461;51.436;7.312;2023-07-13T13:05:00;3.33;;;2.10;;
948;SDS011;461;51.436;7.312;2023-07-13T13:07:28;4.67;;;2.30;;
948;SDS011;461;51.436;7.312;2023-07-13T13:09:54;3.80;;;2.67;;
948;SDS011;461;51.436;7.312;2023-07-13T13:12:21;3.40;;;1.93;;
948;SDS011;461;51.436;7.312;2023-07-13T13:24:04;3.53;;;2.00;;
948;SDS011;461;51.436;7.312;2023-07-13T13:35:41;2.93;;;2.30;;
948;SDS011;461;51.436;7.312;2023-07-13T13:40:39;5.30;;;1.87;;
948;SDS011;461;51.436;7.312;2023-07-13T13:43:15;5.50;;;2.03;;
948;SDS011;461;51.436;7.312;2023-07-13T13:45:42;10.40;;;2.33;;
948;SDS011;461;51.436;7.312;2023-07-13T13:48:13;6.10;;;2.00;;
948;SDS011;461;51.436;7.312;2023-07-13T14:05:58;4.53;;;2.70;;
948;SDS011;461;51.436;7.312;2023-07-13T14:08:24;5.23;;;3.30;;
948;SDS011;461;51.436;7.312;2023-07-13T14:10:51;4.30;;;3.50;;
948;SDS011;461;51.436;7.312;2023-07-13T14:13:22;4.90;;;3.07;;
948;SDS011;461;51.436;7.312;2023-07-13T14:21:58;5.00;;;2.80;;
948;SDS011;461;51.436;7.312;2023-07-13T14:24:24;5.97;;;3.00;;
948;SDS011;461;51.436;7.312;2023-07-13T14:26:50;3.83;;;2.50;;
948;SDS011;461;51.436;7.312;2023-07-13T14:38:27;4.80;;;3.03;;
948;SDS011;461;51.436;7.312;2023-07-13T14:40:53;7.37;;;3.33;;
948;SDS011;461;51.436;7.312;2023-07-13T14:43:19;4.03;;;3.53;;
948;SDS011;461;51.436;7.312;2023-07-13T14:45:46;6.33;;;4.30;;
948;SDS011;461;51.436;7.312;2023-07-13T14:48:15;5.60;;;3.60;;
948;SDS011;461;51.436;7.312;2023-07-13T14:50:55;7.53;;;4.60;;
948;SDS011;461;51.436;7.312;2023-07-13T14:53:21;5.90;;;3.67;;
948;SDS011;461;51.436;7.312;2023-07-13T14:55:47;8.87;;;3.63;;
948;SDS011;461;51.436;7.312;2023-07-13T14:58:14;6.53;;;3.63;;
948;SDS011;461;51.436;7.312;2023-07-13T15:00:40;3.93;;;3.20;;
948;SDS011;461;51.436;7.312;2023-07-13T15:03:08;5.70;;;3.90;;
948;SDS011;461;51.436;7.312;2023-07-13T15:05:41;9.63;;;3.60;;
948;SDS011;461;51.436;7.312;2023-07-13T15:11:16;8.37;;;4.27;;
948;SDS011;461;51.436;7.312;2023-07-13T15:13:43;6.50;;;4.30;;
948;SDS011;461;51.436;7.312;2023-07-13T15:16:15;4.73;;;3.27;;
948;SDS011;461;51.436;7.312;2023-07-13T15:18:42;7.20;;;3.93;;
948;SDS011;461;51.436;7.312;2023-07-13T15:21:08;10.27;;;5.20;;
948;SDS011;461;51.436;7.312;2023-07-13T15:23:35;9.47;;;4.20;;
948;SDS011;461;51.436;7.312;2023-07-13T15:26:01;7.43;;;4.43;;
948;SDS011;461;51.436;7.312;2023-07-13T15:28:28;8.30;;;3.70;;
948;SDS011;461;51.436;7.312;2023-07-13T15:30:54;4.53;;;3.50;;
948;SDS011;461;51.436;7.312;2023-07-13T15:36:24;6.03;;;3.53;;
948;SDS011;461;51.436;7.312;2023-07-13T15:38:52;4.93;;;3.70;;
948;SDS011;461;51.436;7.312;2023-07-13T15:43:45;4.63;;;3.70;;
948;SDS011;461;51.436;7.312;2023-07-13T15:46:11;5.97;;;3.70;;
948;SDS011;461;51.436;7.312;2023-07-13T15:48:37;5.23;;;3.70;;
948;SDS011;461;51.436;7.312;2023-07-13T15:51:04;4.37;;;3.60;;
948;SDS011;461;51.436;7.312;2023-07-13T15:53:31;6.27;;;3.77;;
948;SDS011;461;51.436;7.312;2023-07-13T15:55:58;6.33;;;4.27;;
948;SDS011;461;51.436;7.312;2023-07-13T15:58:25;9.50;;;3.50;;
948;SDS011;461;51.436;7.312;2023-07-13T16:00:51;7.90;;;3.10;;
948;SDS011;461;51.436;7.312;2023-07-13T16:03:19;5.53;;;3.53;;
948;SDS011;461;51.436;7.312;2023-07-13T16:05:45;5.10;;;4.10;;
948;SDS011;461;51.436;7.312;2023-07-13T16:08:33;5.37;;;3.63;;
948;SDS011;461;51.436;7.312;2023-07-13T16:10:59;6.37;;;4.10;;
948;SDS011;461;51.436;7.312;2023-07-13T16:13:25;8.83;;;4.60;;
948;SDS011;461;51.436;7.312;2023-07-13T16:15:52;8.73;;;5.50;;
948;SDS011;461;51.436;7.312;2023-07-13T16:18:21;7.20;;;3.97;;
948;SDS011;461;51.436;7.312;2023-07-13T16:20:47;10.60;;;4.10;;
948;SDS011;461;51.436;7.312;2023-07-13T16:23:18;9.53;;;4.57;;
948;SDS011;461;51.436;7.312;2023-07-13T16:25:46;10.37;;;4.50;;
948;SDS011;461;51.436;7.312;2023-07-13T16:28:13;11.53;;;4.83;;
948;SDS011;461;51.436;7.312;2023-07-13T16:30:39;5.70;;;3.93;;
948;SDS011;461;51.436;7.312;2023-07-13T16:33:06;8.63;;;4.73;;
948;SDS011;461;51.436;7.312;2023-07-13T16:35:38;7.23;;;4.50;;
948;SDS011;461;51.436;7.312;2023-07-13T16:38:09;9.00;;;5.87;;
948;SDS011;461;51.436;7.312;2023-07-13T16:40:38;7.27;;;5.07;;
948;SDS011;461;51.436;7.312;2023-07-13T16:43:08;9.23;;;5.50;;
948;SDS011;461;51.436;7.312;2023-07-13T16:45:37;8.50;;;5.17;;
948;SDS011;461;51.436;7.312;2023-07-13T16:48:10;8.20;;;6.10;;
948;SDS011;461;51.436;7.312;2023-07-13T16:50:40;6.10;;;4.80;;
948;SDS011;461;51.436;7.312;2023-07-13T16:55:52;5.20;;;4.70;;
948;SDS011;461;51.436;7.312;2023-07-13T16:58:24;13.00;;;5.80;;
948;SDS011;461;51.436;7.312;2023-07-13T17:00:51;8.10;;;5.90;;
948;SDS011;461;51.436;7.312;2023-07-13T17:03:17;10.97;;;7.30;;
948;SDS011;461;51.436;7.312;2023-07-13T17:05:44;7.20;;;6.20;;
948;SDS011;461;51.436;7.312;2023-07-13T17:10:39;8.10;;;5.67;;
948;SDS011;461;51.436;7.312;2023-07-13T17:13:10;8.83;;;5.53;;
948;SDS011;461;51.436;7.312;2023-07-13T17:15:36;6.90;;;5.40;;
948;SDS011;461;51.436;7.312;2023-07-13T17:18:03;7.23;;;5.50;;
948;SDS011;461;51.436;7.312;2023-07-13T17:20:34;9.63;;;5.20;;
948;SDS011;461;51.436;7.312;2023-07-13T17:23:20;8.20;;;5.73;;
948;SDS011;461;51.436;7.312;2023-07-13T17:25:48;10.23;;;5.67;;
948;SDS011;461;51.436;7.312;2023-07-13T17:28:17;9.00;;;6.43;;
948;SDS011;461;51.436;7.312;2023-07-13T17:30:47;8.80;;;6.47;;
948;SDS011;461;51.436;7.312;2023-07-13T17:33:30;10.40;;;6.00;;
948;SDS011;461;51.436;7.312;2023-07-13T17:35:57;9.77;;;5.70;;
948;SDS011;461;51.436;7.312;2023-07-13T17:38:29;6.20;;;5.63;;
948;SDS011;461;51.436;7.312;2023-07-13T17:40:55;11.13;;;6.47;;
948;SDS011;461;51.436;7.312;2023-07-13T17:43:21;7.13;;;4.83;;
948;SDS011;461;51.436;7.312;2023-07-13T17:45:48;8.97;;;5.30;;
948;SDS011;461;51.436;7.312;2023-07-13T17:48:15;7.90;;;6.67;;
948;SDS011;461;51.436;7.312;2023-07-13T17:50:44;6.70;;;4.37;;
948;SDS011;461;51.436;7.312;2023-07-13T17:53:14;7.50;;;5.07;;
948;SDS011;461;51.436;7.312;2023-07-13T17:55:41;7.67;;;5.00;;
948;SDS011;461;51.436;7.312;2023-07-13T17:58:07;6.83;;;5.60;;
948;SDS011;461;51.436;7.312;2023-07-13T18:00:34;14.60;;;5.47;;
948;SDS011;461;51.436;7.312;2023-07-13T18:05:48;4.87;;;4.37;;
948;SDS011;461;51.436;7.312;2023-07-13T18:10:45;6.03;;;3.73;;
948;SDS011;461;51.436;7.312;2023-07-13T18:13:11;6.80;;;4.60;;
948;SDS011;461;51.436;7.312;2023-07-13T18:15:37;5.27;;;4.43;;
948;SDS011;461;51.436;7.312;2023-07-13T18:18:03;6.70;;;4.37;;
948;SDS011;461;51.436;7.312;2023-07-13T18:20:30;8.33;;;3.77;;
948;SDS011;461;51.436;7.312;2023-07-13T18:22:58;6.57;;;3.93;;
948;SDS011;461;51.436;7.312;2023-07-13T18:28:27;8.17;;;5.30;;
948;SDS011;461;51.436;7.312;2023-07-13T18:30:55;5.20;;;3.80;;
948;SDS011;461;51.436;7.312;2023-07-13T18:33:23;6.87;;;3.87;;
948;SDS011;461;51.436;7.312;2023-07-13T18:35:49;5.73;;;4.13;;
948;SDS011;461;51.436;7.312;2023-07-13T18:38:17;6.50;;;3.83;;
948;SDS011;461;51.436;7.312;2023-07-13T18:40:44;5.43;;;3.30;;
948;SDS011;461;51.436;7.312;2023-07-13T18:43:11;5.80;;;3.53;;
948;SDS011;461;51.436;7.312;2023-07-13T18:45:37;6.37;;;4.37;;
948;SDS011;461;51.436;7.312;2023-07-13T18:48:08;5.33;;;3.33;;
948;SDS011;461;51.436;7.312;2023-07-13T18:50:37;7.37;;;4.20;;
948;SDS011;461;51.436;7.312;2023-07-13T18:53:10;7.30;;;4.13;;
948;SDS011;461;51.436;7.312;2023-07-13T18:55:36;5.60;;;3.80;;
948;SDS011;461;51.436;7.312;2023-07-13T18:58:04;5.93;;;3.90;;
948;SDS011;461;51.436;7.312;2023-07-13T19:00:30;6.90;;;4.13;;
948;SDS011;461;51.436;7.312;2023-07-13T19:02:57;3.70;;;3.40;;
948;SDS011;461;51.436;7.312;2023-07-13T19:05:25;5.67;;;3.77;;
948;SDS011;461;51.436;7.312;2023-07-13T19:07:51;4.13;;;3.73;;
948;SDS011;461;51.436;7.312;2023-07-13T19:10:21;4.93;;;3.80;;
948;SDS011;461;51.436;7.312;2023-07-13T19:12:51;5.00;;;3.60;;
948;SDS011;461;51.436;7.312;2023-07-13T19:15:20;8.40;;;3.77;;
948;SDS011;461;51.436;7.312;2023-07-13T19:17:48;5.40;;;3.57;;
948;SDS011;461;51.436;7.312;2023-07-13T19:20:14;5.67;;;3.70;;
948;SDS011;461;51.436;7.312;2023-07-13T19:22:47;8.37;;;3.57;;
948;SDS011;461;51.436;7.312;2023-07-13T19:25:14;5.60;;;3.57;;
948;SDS011;461;51.436;7.312;2023-07-13T19:27:42;7.77;;;3.87;;
948;SDS011;461;51.436;7.312;2023-07-13T19:39:12;6.03;;;4.70;;
948;SDS011;461;51.436;7.312;2023-07-13T19:41:41;4.97;;;3.93;;
948;SDS011;461;51.436;7.312;2023-07-13T19:44:10;4.30;;;3.90;;
948;SDS011;461;51.436;7.312;2023-07-13T19:46:38;11.40;;;5.67;;
948;SDS011;461;51.436;7.312;2023-07-13T19:49:04;5.10;;;4.60;;
948;SDS011;461;51.436;7.312;2023-07-13T19:51:34;7.73;;;3.70;;
948;SDS011;461;51.436;7.312;2023-07-13T19:54:01;5.27;;;4.57;;
948;SDS011;461;51.436;7.312;2023-07-13T19:56:28;6.93;;;4.60;;
948;SDS011;461;51.436;7.312;2023-07-13T19:58:54;7.73;;;4.30;;
948;SDS011;461;51.436;7.312;2023-07-13T20:01:20;7.43;;;4.73;;
948;SDS011;461;51.436;7.312;2023-07-13T20:03:46;5.33;;;4.50;;
948;SDS011;461;51.436;7.312;2023-07-13T20:06:18;6.13;;;4.53;;
948;SDS011;461;51.436;7.312;2023-07-13T20:08:46;6.47;;;4.53;;
948;SDS011;461;51.436;7.312;2023-07-13T20:11:12;7.80;;;4.50;;
948;SDS011;461;51.436;7.312;2023-07-13T20:13:38;6.47;;;3.90;;